createdAt,value
2022-08-27T00:00:37.681Z,18.9
2022-08-27T00:20:37.633Z,18.86
2022-08-27T00:40:37.684Z,18.87
2022-08-27T01:00:37.572Z,18.88
2022-08-27T01:20:37.501Z,18.89
2022-08-27T01:40:37.546Z,18.94
2022-08-27T02:00:37.440Z,19.09
2022-08-27T02:20:37.339Z,19.1
2022-08-27T02:40:37.437Z,19.28
2022-08-27T03:00:37.251Z,19.1
2022-08-27T03:20:37.291Z,19.13
2022-08-27T03:40:37.192Z,19.24
2022-08-27T04:00:37.104Z,19.23
2022-08-27T04:20:37.042Z,19.19
2022-08-27T04:40:37.290Z,19.1
2022-08-27T05:00:36.945Z,19.1
2022-08-27T05:20:36.900Z,19.24
2022-08-27T05:40:36.948Z,19.43
2022-08-27T06:00:36.886Z,19.75
2022-08-27T06:20:36.846Z,19.79
2022-08-27T06:40:36.753Z,19.92
2022-08-27T07:00:36.659Z,19.95
2022-08-27T07:20:36.598Z,20.12
2022-08-27T07:40:36.594Z,20.2
2022-08-27T08:00:36.498Z,20.14
2022-08-27T08:20:56.929Z,20.61
2022-08-27T08:40:36.482Z,20.76
2022-08-27T09:00:36.404Z,21.02
2022-08-27T09:20:36.332Z,21.16
2022-08-27T09:40:36.336Z,21.73
2022-08-27T10:00:36.314Z,22.08
2022-08-27T10:20:36.189Z,22.38
2022-08-27T10:40:36.166Z,22.16
2022-08-27T11:00:36.132Z,22.09
2022-08-27T11:20:36.069Z,22.25
2022-08-27T11:40:36.009Z,22.4
2022-08-27T12:00:35.917Z,23.1
2022-08-27T12:20:35.890Z,23.5
2022-08-27T12:40:35.814Z,23.37
2022-08-27T13:00:35.837Z,23.43
2022-08-27T13:20:35.747Z,23.42
2022-08-27T13:40:35.748Z,23.38
2022-08-27T14:00:35.614Z,23.77
2022-08-27T14:20:35.868Z,23.73
2022-08-27T14:40:35.650Z,23.54
2022-08-27T15:00:35.478Z,22.99
2022-08-27T15:20:35.435Z,22.59
2022-08-27T15:40:35.430Z,22.23
2022-08-27T16:00:35.287Z,21.7
2022-08-27T16:20:35.262Z,21.31
2022-08-27T16:40:35.291Z,21.08
2022-08-27T17:00:35.199Z,20.95
2022-08-27T17:20:35.114Z,20.76
2022-08-27T17:40:35.228Z,20.25
2022-08-27T18:00:35.013Z,20.06
2022-08-27T18:20:34.943Z,19.89
2022-08-27T18:40:34.897Z,19.89
2022-08-27T19:00:34.846Z,19.89
2022-08-27T19:20:34.822Z,19.65
2022-08-27T19:40:34.803Z,19.44
2022-08-27T20:00:34.710Z,19.22
2022-08-27T20:20:34.663Z,19.1
2022-08-27T20:40:34.656Z,19.1
2022-08-27T21:00:34.672Z,19.22
2022-08-27T21:20:34.529Z,19.31
2022-08-27T21:40:34.554Z,19.24
2022-08-27T22:00:34.497Z,19.29
2022-08-27T22:20:34.336Z,19.2
2022-08-27T22:40:34.418Z,19.1
2022-08-27T23:00:34.279Z,19.04
2022-08-27T23:20:34.246Z,18.8
2022-08-27T23:40:34.269Z,18.69
